Terminal Aerodrome Forecast
Issued by NWS

Home | Current Version | Previous Version | Text Only | Print | Product List | Glossary On
Versions: 1 2 3 4 5 6 7 8 9 10 11 12
000
FTUS45 KRIW 232322
TAFCPR
TAF
KCPR 232322Z 2400/2424 32014G20KT P6SM FEW060 BKN250
     FM240100 26007KT P6SM SCT250
     FM241500 25012G18KT P6SM SKC=

USA.gov is the U.S. government's official web portal to all federal, state and local government web resources and services.